Copan, Oklahoma
Current Conditions -  °F | °C
As of 5:53 AM on Friday 31 Oct 2014 (Local Time) from KBVO Reporting Station
Clear Clear  
Wind Chill: 41°   Ceiling: Unl
Heat Index: 45°   Visibility: 10mi
Dew Point: 40°   Wind: 8mph
Humidity: 82%   Direction: 360°N
Pressure: 30.34"   Gusts: NA
Location:  36.9°N, 95.93°W
Report Text: KBVO 311053Z AUTO 36007KT 10SM CLR 07/04 A3034 RMK AO2 SLP268 T00720044
Loading
Personal Weather Stations






























Interactive Weather Map
Tropical Storm Tracking
New forecast layout! Learn more

10-Day Weather Forecast

Advertisements
Track Severe Weather on mobile